Time;durP1;ratioP1;P1;durP2;ratioP2;P2;SDS_P1;SDS_P2;PMS_P1;PMS_P2;Temp;Humidity;BMP_temperature;BMP_pressure;BME280_temperature;BME280_humidity;BME280_pressure;Samples;Min_cycle;Max_cycle;Signal;HPM_P1;HPM_P2
2022/01/02 00:00:19;;;;;;;6.53;2.92;;;;;;;6.66;80.68;100697.41;1818565;79;21523;-58
2022/01/02 00:02:56;;;;;;;6.53;3.27;;;;;;;6.51;80.66;100702.13;1819320;79;21095;-59
2022/01/02 00:05:26;;;;;;;8.03;4.30;;;;;;;6.42;80.72;100702.33;1819021;78;21068;-58
2022/01/02 00:08:07;;;;;;;11.12;5.70;;;;;;;6.36;80.58;100707.67;1819173;79;21120;-58
2022/01/02 00:10:46;;;;;;;9.80;4.78;;;;;;;6.30;80.58;100707.82;1819085;79;21032;-58
2022/01/02 00:13:18;;;;;;;9.45;4.58;;;;;;;6.21;80.42;100715.86;1821853;77;21098;-58
2022/01/02 00:15:48;;;;;;;8.93;3.98;;;;;;;6.11;80.37;100720.44;1836963;78;21555;-58
2022/01/02 00:18:17;;;;;;;9.95;4.58;;;;;;;6.04;80.19;100723.61;1837220;78;21103;-58
2022/01/02 00:20:48;;;;;;;9.73;5.12;;;;;;;5.95;80.49;100725.07;1837095;78;21036;-58
2022/01/02 00:23:29;;;;;;;9.70;5.35;;;;;;;5.91;80.50;100722.11;1837183;78;21041;-58
2022/01/02 00:25:52;;;;;;;14.05;5.15;;;;;;;5.84;80.67;100715.28;1836228;78;21046;-59
2022/01/02 00:28:20;;;;;;;10.82;5.42;;;;;;;5.80;80.57;100721.87;1837090;78;21085;-58
2022/01/02 00:30:50;;;;;;;10.82;4.78;;;;;;;5.76;80.63;100721.52;1837085;78;21088;-57
2022/01/02 00:33:20;;;;;;;7.03;3.80;;;;;;;5.74;80.68;100713.31;1837291;78;21496;-59
2022/01/02 00:35:49;;;;;;;7.78;3.72;;;;;;;5.76;80.60;100724.13;1837197;78;21079;-59
2022/01/02 00:38:23;;;;;;;10.70;4.45;;;;;;;5.77;80.57;100723.25;1851286;77;21021;-58
2022/01/02 00:40:54;;;;;;;9.45;4.10;;;;;;;5.76;80.50;100726.75;1851507;77;21094;-58
2022/01/02 00:43:28;;;;;;;7.47;3.75;;;;;;;5.79;80.43;100717.55;1851531;77;21005;-58
2022/01/02 00:46:00;;;;;;;10.32;4.50;;;;;;;5.79;80.43;100722.77;1850298;77;21131;-58
2022/01/02 00:48:31;;;;;;;9.08;4.17;;;;;;;5.77;80.29;100725.87;1851555;77;21068;-58
2022/01/02 00:51:11;;;;;;;6.78;3.65;;;;;;;5.79;80.35;100721.47;1850706;77;21100;-59
2022/01/02 00:53:43;;;;;;;6.78;3.80;;;;;;;5.77;80.32;100724.56;1851145;77;21095;-58
2022/01/02 00:56:13;;;;;;;8.45;3.67;;;;;;;5.82;80.18;100730.14;1851522;77;21057;-58
2022/01/02 00:58:53;;;;;;;5.15;2.60;;;;;;;5.84;80.12;100724.43;1851625;77;21111;-59
2022/01/02 01:01:25;;;;;;;4.37;2.10;;;;;;;5.86;80.06;100725.26;1851535;77;21483;-59
2022/01/02 01:03:55;;;;;;;4.90;2.58;;;;;;;5.84;79.94;100716.59;1851545;77;21036;-59
2022/01/02 01:06:27;;;;;;;4.58;2.42;;;;;;;5.79;79.96;100720.16;1851485;77;21048;-57
2022/01/02 01:08:59;;;;;;;4.60;2.27;;;;;;;5.83;79.89;100713.12;1851529;77;21021;-56
2022/01/02 01:11:29;;;;;;;6.40;1.98;;;;;;;5.85;79.79;100703.95;1851550;77;20989;-56
2022/01/02 01:14:00;;;;;;;4.50;2.42;;;;;;;5.83;79.72;100706.59;1850313;77;21131;-56
2022/01/02 01:16:30;;;;;;;4.03;2.45;;;;;;;5.83;79.68;100701.37;1844784;78;21084;-57
2022/01/02 01:18:59;;;;;;;4.72;2.30;;;;;;;5.85;79.66;100703.95;1844795;78;21006;-56
2022/01/02 01:21:28;;;;;;;5.53;2.22;;;;;;;5.86;79.60;100701.73;1844834;78;21017;-56
2022/01/02 01:23:58;;;;;;;4.78;2.40;;;;;;;5.86;79.62;100709.58;1844719;77;21021;-57
2022/01/02 01:26:27;;;;;;;3.72;1.77;;;;;;;5.88;79.63;100703.88;1844592;78;21460;-57
2022/01/02 01:28:56;;;;;;;5.22;2.70;;;;;;;5.91;79.61;100699.90;1844720;78;21432;-57
2022/01/02 01:31:24;;;;;;;4.97;2.37;;;;;;;5.89;79.57;100692.55;1844709;78;21491;-57
2022/01/02 01:33:53;;;;;;;4.15;2.17;;;;;;;5.89;79.54;100696.00;1844678;77;21041;-56
2022/01/02 01:36:22;;;;;;;4.85;1.87;;;;;;;5.79;79.39;100700.56;1839871;78;21483;-56
2022/01/02 01:38:51;;;;;;;3.77;2.37;;;;;;;5.76;79.58;100708.45;1818991;79;21537;-57
2022/01/02 01:41:28;;;;;;;4.17;2.10;;;;;;;5.79;79.56;100712.75;1819064;78;21517;-58
2022/01/02 01:46:44;;;;;;;3.22;1.35;;;;;;;5.81;79.69;100707.07;1819047;79;21032;-59
2022/01/02 01:49:19;;;;;;;3.60;1.60;;;;;;;5.80;79.52;100710.11;1819013;78;21126;-60
2022/01/02 01:51:49;;;;;;;4.03;1.80;;;;;;;5.80;79.52;100708.80;1819165;78;21012;-58
2022/01/02 01:54:19;;;;;;;4.17;1.95;;;;;;;5.80;79.44;100707.50;1818924;78;21059;-59
2022/01/02 01:56:51;;;;;;;3.10;2.00;;;;;;;5.83;79.39;100700.06;1819064;79;21056;-58
2022/01/02 01:59:21;;;;;;;4.90;2.20;;;;;;;5.81;79.33;100700.54;1819062;78;20997;-57
2022/01/02 02:01:51;;;;;;;4.42;1.85;;;;;;;5.74;79.22;100698.48;1819071;79;21033;-58
2022/01/02 02:04:21;;;;;;;5.17;1.87;;;;;;;5.69;79.25;100696.40;1819161;78;21490;-57
2022/01/02 02:06:52;;;;;;;4.58;2.22;;;;;;;5.68;79.24;100694.70;1819168;78;21107;-57
2022/01/02 02:09:24;;;;;;;6.03;2.30;;;;;;;5.68;79.24;100688.16;1819161;79;21624;-57
2022/01/02 02:11:51;;;;;;;4.60;2.20;;;;;;;5.71;79.26;100692.45;1819020;78;21013;-58
2022/01/02 02:14:20;;;;;;;3.58;1.77;;;;;;;5.73;79.13;100699.36;1818911;79;21584;-57
2022/01/02 02:16:49;;;;;;;5.42;1.90;;;;;;;5.76;79.14;100694.53;1825429;77;21556;-57
2022/01/02 02:19:18;;;;;;;3.87;2.12;;;;;;;5.82;79.07;100698.78;1851608;77;21501;-57
2022/01/02 02:21:47;;;;;;;5.28;2.30;;;;;;;5.84;79.04;100696.99;1851591;77;21552;-57
2022/01/02 02:24:15;;;;;;;5.20;2.00;;;;;;;5.86;79.07;100697.82;1851607;77;21070;-59
2022/01/02 02:26:44;;;;;;;4.58;1.82;;;;;;;5.89;79.08;100701.23;1851488;77;21083;-58
2022/01/02 02:29:13;;;;;;;4.47;2.12;;;;;;;5.91;79.14;100698.59;1851805;77;21509;-59
2022/01/02 02:31:45;;;;;;;3.45;1.95;;;;;;;5.94;79.14;100698.54;1851761;77;21493;-58
2022/01/02 02:34:14;;;;;;;4.97;1.90;;;;;;;5.93;79.07;100700.73;1851581;77;21046;-57
2022/01/02 02:36:43;;;;;;;5.40;1.98;;;;;;;5.91;78.98;100702.06;1850501;77;21013;-58
2022/01/02 02:39:11;;;;;;;4.42;1.72;;;;;;;5.92;78.96;100702.91;1847987;78;21060;-58
2022/01/02 02:41:42;;;;;;;5.28;1.70;;;;;;;5.90;78.94;100701.66;1848010;78;21538;-57
2022/01/02 02:44:32;;;;;;;4.15;2.05;;;;;;;5.90;78.94;100708.62;1848043;78;21068;-57
2022/01/02 02:49:37;;;;;;;4.62;2.02;;;;;;;5.92;78.92;100702.91;1848253;78;21539;-58
2022/01/02 02:52:13;;;;;;;4.55;2.10;;;;;;;5.92;79.03;100704.22;1847846;78;21518;-58
2022/01/02 02:54:37;;;;;;;4.03;1.90;;;;;;;5.92;79.04;100699.88;1847997;78;21061;-56
2022/01/02 02:57:12;;;;;;;3.55;1.85;;;;;;;5.93;79.05;100702.88;1848111;78;21500;-57
2022/01/02 02:59:36;;;;;;;5.00;2.10;;;;;;;5.92;79.10;100700.30;1848121;78;21037;-57
2022/01/02 03:02:06;;;;;;;6.75;2.02;;;;;;;5.90;79.25;100704.70;1848026;78;21045;-58
2022/01/02 03:04:36;;;;;;;5.08;2.30;;;;;;;5.91;79.33;100702.52;1847898;78;21557;-58
2022/01/02 03:07:05;;;;;;;4.47;1.75;;;;;;;5.93;79.30;100699.42;1848130;78;21456;-58
2022/01/02 03:09:47;;;;;;;4.12;1.85;;;;;;;5.92;79.30;100702.48;1848145;78;21537;-57
2022/01/02 03:12:12;;;;;;;5.72;1.85;;;;;;;5.92;79.34;100701.18;1847967;78;21057;-57
2022/01/02 03:14:42;;;;;;;4.70;2.10;;;;;;;5.91;79.28;100698.59;1847825;78;21029;-58
2022/01/02 03:17:12;;;;;;;5.17;1.70;;;;;;;5.90;79.35;100698.16;1848481;78;21534;-57
2022/01/02 03:19:41;;;;;;;4.05;1.50;;;;;;;5.85;79.30;100694.81;1848617;78;21092;-57
2022/01/02 03:22:12;;;;;;;3.80;1.82;;;;;;;5.77;79.31;100694.52;1848567;77;21091;-57
2022/01/02 03:24:41;;;;;;;4.65;1.75;;;;;;;5.59;79.43;100687.04;1848753;78;21069;-58
2022/01/02 03:27:10;;;;;;;3.27;1.72;;;;;;;5.44;79.50;100680.78;1848592;78;21182;-57
2022/01/02 03:29:39;;;;;;;6.60;2.40;;;;;;;5.26;79.66;100689.83;1848767;77;21585;-58
2022/01/02 03:32:08;;;;;;;5.60;2.65;;;;;;;5.15;79.77;100700.46;1848606;78;21166;-57
2022/01/02 03:34:37;;;;;;;7.95;2.50;;;;;;;5.06;80.15;100704.53;1861820;77;21576;-57
2022/01/02 03:37:05;;;;;;;4.80;2.00;;;;;;;5.10;80.44;100704.89;1875048;75;21110;-58
2022/01/02 03:39:36;;;;;;;4.35;2.10;;;;;;;5.14;80.61;100706.55;1868956;77;21515;-57
2022/01/02 03:42:05;;;;;;;8.08;2.37;;;;;;;5.17;80.80;100694.77;1868436;77;21093;-57
2022/01/02 03:44:34;;;;;;;3.92;1.65;;;;;;;5.19;80.89;100694.29;1868692;77;21170;-56
2022/01/02 03:47:06;;;;;;;4.20;2.00;;;;;;;5.19;81.01;100691.68;1868913;77;21078;-57
2022/01/02 03:49:35;;;;;;;5.42;1.95;;;;;;;5.21;81.05;100691.20;1868793;77;21185;-58
2022/01/02 03:52:05;;;;;;;3.83;1.75;;;;;;;5.30;80.86;100694.95;1865662;77;21046;-57
2022/01/02 03:54:33;;;;;;;4.58;1.70;;;;;;;5.38;80.65;100699.58;1868475;77;21083;-57
2022/01/02 03:57:03;;;;;;;4.37;1.80;;;;;;;5.41;80.59;100700.84;1868960;77;21556;-57
2022/01/02 03:59:32;;;;;;;4.85;2.33;;;;;;;5.44;80.50;100702.55;1866500;77;21488;-58
2022/01/02 04:02:21;;;;;;;4.45;1.72;;;;;;;5.49;80.45;100711.14;1808951;77;21137;-56
2022/01/02 04:04:51;;;;;;;4.67;2.00;;;;;;;5.56;80.28;100702.76;1819581;78;21021;-57
2022/01/02 04:07:19;;;;;;;4.10;1.60;;;;;;;5.60;80.18;100707.03;1828466;78;21041;-57
2022/01/02 04:09:51;;;;;;;4.42;1.95;;;;;;;5.62;80.06;100707.85;1828405;78;21512;-57
2022/01/02 04:12:19;;;;;;;4.00;1.90;;;;;;;5.66;80.00;100705.59;1829678;77;21061;-58
2022/01/02 04:14:48;;;;;;;4.37;1.92;;;;;;;5.69;80.00;100700.77;1820549;77;21078;-57
2022/01/02 04:17:17;;;;;;;4.72;2.00;;;;;;;5.69;80.01;100704.23;1838943;77;21033;-59
2022/01/02 04:19:45;;;;;;;3.60;2.20;;;;;;;5.69;79.98;100704.23;1797117;80;21095;-59
2022/01/02 04:22:14;;;;;;;4.03;1.90;;;;;;;5.71;79.99;100707.67;1820288;78;21143;-59
2022/01/02 04:24:43;;;;;;;4.70;2.00;;;;;;;5.74;80.03;100715.47;1828443;78;21143;-58
2022/01/02 04:27:12;;;;;;;4.60;2.08;;;;;;;5.77;80.03;100711.50;1828593;78;21497;-59
2022/01/02 04:29:42;;;;;;;6.87;1.92;;;;;;;5.79;79.98;100709.71;1828481;78;21163;-63
2022/01/02 04:32:11;;;;;;;3.15;1.55;;;;;;;5.79;79.92;100713.62;1828459;78;21144;-62
2022/01/02 04:34:40;;;;;;;3.20;1.80;;;;;;;5.78;79.95;100704.05;1828555;77;21535;-61
2022/01/02 04:37:10;;;;;;;4.50;2.00;;;;;;;5.79;79.98;100705.80;1825651;77;21490;-61
2022/01/02 04:39:40;;;;;;;3.95;2.10;;;;;;;5.78;79.92;100698.83;1822420;78;21111;-60
2022/01/02 04:42:09;;;;;;;4.12;2.15;;;;;;;5.77;79.85;100695.82;1822400;79;21027;-62
2022/01/02 04:44:39;;;;;;;4.45;2.15;;;;;;;5.72;79.86;100698.11;1822433;79;21172;-60
2022/01/02 04:47:07;;;;;;;5.08;2.52;;;;;;;5.71;79.90;100698.98;1822371;79;21105;-60
2022/01/02 04:49:36;;;;;;;5.42;2.30;;;;;;;5.70;79.97;100708.58;1822490;78;21517;-60
2022/01/02 04:52:05;;;;;;;5.20;2.52;;;;;;;5.72;80.00;100710.72;1822385;79;21502;-60
2022/01/02 04:54:34;;;;;;;4.33;2.47;;;;;;;5.76;80.04;100717.59;1822534;79;21434;-60
2022/01/02 04:57:03;;;;;;;4.87;2.52;;;;;;;5.78;80.10;100711.89;1822269;79;21507;-61
2022/01/02 04:59:32;;;;;;;5.62;2.47;;;;;;;5.83;80.07;100716.16;1822577;79;21036;-60
2022/01/02 05:02:02;;;;;;;4.87;2.40;;;;;;;5.85;80.02;100713.10;1822318;78;21122;-60
2022/01/02 05:04:30;;;;;;;5.05;2.75;;;;;;;5.86;79.95;100701.73;1822482;79;21530;-60
2022/01/02 05:06:59;;;;;;;4.92;2.67;;;;;;;5.82;79.76;100697.47;1822388;78;21502;-60
2022/01/02 05:09:28;;;;;;;5.67;2.92;;;;;;;5.79;79.73;100704.91;1822296;79;21051;-61
2022/01/02 05:11:59;;;;;;;5.90;3.15;;;;;;;5.77;79.82;100708.89;1822353;79;21515;-60
2022/01/02 05:14:28;;;;;;;4.97;2.87;;;;;;;5.78;79.86;100706.67;1822377;79;21451;-60
2022/01/02 05:16:57;;;;;;;8.63;3.52;;;;;;;5.80;79.89;100712.72;1822389;79;21091;-60
2022/01/02 05:19:26;;;;;;;7.22;4.00;;;;;;;5.78;79.77;100717.12;1822373;79;21131;-60
2022/01/02 05:21:55;;;;;;;7.03;3.67;;;;;;;5.73;79.71;100718.95;1822345;79;21532;-60
2022/01/02 05:24:24;;;;;;;8.78;4.12;;;;;;;5.70;79.78;100715.54;1822351;78;21498;-60
2022/01/02 05:26:55;;;;;;;5.95;3.22;;;;;;;5.69;79.86;100719.91;1822364;79;21478;-60
2022/01/02 05:29:24;;;;;;;6.40;3.75;;;;;;;5.70;79.88;100718.15;1822359;79;21118;-60
2022/01/02 05:31:54;;;;;;;8.58;3.80;;;;;;;5.73;79.92;100726.80;1822365;78;21509;-60
2022/01/02 05:34:22;;;;;;;7.47;3.65;;;;;;;5.77;79.95;100735.02;1822257;78;21525;-61
2022/01/02 05:36:51;;;;;;;7.28;4.22;;;;;;;5.82;79.99;100731.44;1822323;79;21080;-60
2022/01/02 05:39:22;;;;;;;7.83;3.87;;;;;;;5.86;80.00;100732.64;1822184;78;21145;-60
2022/01/02 05:41:52;;;;;;;10.30;4.15;;;;;;;5.91;79.97;100727.34;1822482;78;21007;-60
2022/01/02 05:44:23;;;;;;;8.48;3.80;;;;;;;5.96;79.94;100734.23;1822212;78;21513;-60
2022/01/02 05:46:53;;;;;;;8.28;4.22;;;;;;;5.99;79.89;100733.30;1822289;79;21547;-60
2022/01/02 05:49:22;;;;;;;7.10;3.52;;;;;;;6.03;79.89;100740.20;1822533;79;21419;-60
2022/01/02 05:51:51;;;;;;;7.60;4.10;;;;;;;6.04;79.89;100744.52;1822409;79;21052;-60
2022/01/02 05:54:20;;;;;;;7.60;4.08;;;;;;;6.05;79.89;100752.80;1822467;79;21035;-60
2022/01/02 05:56:51;;;;;;;8.50;3.87;;;;;;;6.06;79.95;100750.58;1822438;78;21167;-60
2022/01/02 05:59:20;;;;;;;7.12;3.92;;;;;;;6.07;80.02;100755.34;1822397;78;21094;-62
2022/01/02 06:01:48;;;;;;;6.55;3.00;;;;;;;6.09;79.95;100755.75;1822454;78;21626;-60
2022/01/02 06:04:17;;;;;;;3.98;2.17;;;;;;;6.06;79.89;100758.42;1822349;79;21200;-58
2022/01/02 06:06:46;;;;;;;2.25;1.20;;;;;;;6.01;79.87;100768.55;1822404;79;21530;-58
2022/01/02 06:09:15;;;;;;;1.67;1.00;;;;;;;5.95;79.88;100778.66;1822338;78;21130;-58
2022/01/02 06:11:44;;;;;;;1.32;0.98;;;;;;;5.89;79.89;100787.92;1822340;79;21060;-57
2022/01/02 06:14:13;;;;;;;2.95;1.02;;;;;;;5.88;79.88;100790.11;1822351;78;21804;-58
2022/01/02 06:16:42;;;;;;;1.40;1.00;;;;;;;5.84;79.81;100787.14;1822383;79;21056;-58
2022/01/02 06:19:11;;;;;;;2.27;0.65;;;;;;;5.83;79.80;100794.55;1822407;78;21513;-58
2022/01/02 06:21:40;;;;;;;1.30;0.80;;;;;;;5.77;79.66;100793.80;1822453;79;21486;-58
2022/01/02 06:24:08;;;;;;;1.37;0.70;;;;;;;5.68;79.61;100790.05;1822335;79;21051;-60
2022/01/02 06:26:37;;;;;;;1.98;0.93;;;;;;;5.66;79.58;100791.80;1822238;78;21592;-61
2022/01/02 06:29:06;;;;;;;1.27;0.90;;;;;;;5.65;79.47;100795.31;1822438;79;21490;-61
2022/01/02 06:31:35;;;;;;;1.55;1.25;;;;;;;5.65;79.53;100798.39;1822416;79;21134;-61
2022/01/02 06:34:04;;;;;;;1.20;0.72;;;;;;;5.66;79.56;100798.78;1822361;79;21433;-61
2022/01/02 06:36:33;;;;;;;1.57;0.88;;;;;;;5.63;79.62;100797.09;1822419;79;21621;-62
2022/01/02 06:39:02;;;;;;;1.50;0.80;;;;;;;5.62;79.62;100809.73;1822258;78;21562;-62
2022/01/02 06:41:30;;;;;;;1.20;1.00;;;;;;;5.62;79.69;100813.65;1822347;79;21133;-62
2022/01/02 06:44:00;;;;;;;1.92;1.20;;;;;;;5.66;79.63;100818.38;1822333;78;21129;-62
2022/01/02 06:46:29;;;;;;;1.27;1.15;;;;;;;5.68;79.57;100817.91;1822412;78;21040;-61
2022/01/02 06:48:58;;;;;;;1.98;1.22;;;;;;;5.71;79.53;100816.10;1822411;79;21545;-61
2022/01/02 06:51:27;;;;;;;1.57;1.35;;;;;;;5.71;79.50;100822.63;1822366;79;21076;-62
2022/01/02 06:53:56;;;;;;;3.02;1.87;;;;;;;5.70;79.51;100826.57;1822423;79;21511;-61
2022/01/02 06:56:24;;;;;;;3.10;1.70;;;;;;;5.68;79.52;100830.55;1822376;79;21550;-61
2022/01/02 06:58:53;;;;;;;4.33;2.37;;;;;;;5.65;79.55;100825.81;1822320;79;21580;-61
2022/01/02 07:01:22;;;;;;;4.95;2.37;;;;;;;5.61;79.48;100832.84;1822415;79;21486;-61
2022/01/02 07:03:51;;;;;;;5.80;2.95;;;;;;;5.57;79.52;100841.59;1832697;78;21083;-61
2022/01/02 07:06:19;;;;;;;14.10;6.67;;;;;;;5.52;79.61;100844.75;1837033;78;21105;-61
2022/01/02 07:08:48;;;;;;;7.58;4.00;;;;;;;5.49;79.69;100847.41;1837102;78;21102;-60
2022/01/02 07:11:18;;;;;;;9.15;5.37;;;;;;;5.46;79.67;100855.27;1837228;78;21070;-61
2022/01/02 07:13:46;;;;;;;10.05;5.17;;;;;;;5.41;79.70;100865.36;1837126;78;21505;-60
2022/01/02 07:16:15;;;;;;;11.88;5.40;;;;;;;5.39;79.69;100859.75;1837093;78;21125;-61
2022/01/02 07:18:44;;;;;;;10.55;6.45;;;;;;;5.32;79.83;100865.95;1837116;78;21105;-61
2022/01/02 07:21:13;;;;;;;9.38;5.83;;;;;;;5.31;79.88;100870.32;1837091;78;21117;-61
2022/01/02 07:26:31;;;;;;;13.50;6.33;;;;;;;5.31;79.93;100875.96;1826948;78;21077;-61
2022/01/02 07:28:59;;;;;;;9.40;5.70;;;;;;;5.29;79.90;100885.12;1827006;78;21023;-61
2022/01/02 07:31:28;;;;;;;10.60;3.90;;;;;;;5.27;79.95;100880.37;1827081;78;21199;-61
2022/01/02 07:33:57;;;;;;;13.45;5.75;;;;;;;5.26;80.03;100886.48;1827013;78;21054;-61
2022/01/02 07:36:26;;;;;;;9.53;5.28;;;;;;;5.27;80.06;100893.88;1826979;78;21138;-61
2022/01/02 07:38:54;;;;;;;10.38;5.50;;;;;;;5.23;79.92;100899.13;1827213;78;21184;-61
2022/01/02 07:41:23;;;;;;;12.75;5.10;;;;;;;5.26;80.00;100894.77;1826993;78;21469;-61
2022/01/02 07:43:54;;;;;;;11.22;4.97;;;;;;;5.28;79.90;100910.83;1826925;78;21140;-60
2022/01/02 07:46:22;;;;;;;10.85;5.03;;;;;;;5.27;79.90;100911.70;1827008;78;21521;-61
2022/01/02 07:48:52;;;;;;;9.45;4.55;;;;;;;5.25;79.89;100910.86;1827129;78;21066;-61
2022/01/02 07:51:20;;;;;;;9.38;4.90;;;;;;;5.24;79.78;100910.45;1826992;78;21481;-61
2022/01/02 07:53:49;;;;;;;8.65;4.45;;;;;;;5.26;79.82;100912.59;1827025;78;21062;-61
2022/01/02 07:56:18;;;;;;;5.78;3.00;;;;;;;5.26;79.62;100920.88;1826947;78;21140;-61
2022/01/02 07:58:46;;;;;;;8.75;4.90;;;;;;;5.31;79.71;100926.88;1827077;78;21465;-61
2022/01/02 08:01:15;;;;;;;11.95;5.58;;;;;;;5.34;79.64;100926.39;1827217;78;21062;-61
2022/01/02 08:03:44;;;;;;;8.23;3.92;;;;;;;5.37;79.55;100927.66;1827079;78;21213;-61
2022/01/02 08:06:13;;;;;;;7.28;3.70;;;;;;;5.35;79.27;100928.13;1826998;78;21074;-61
2022/01/02 08:08:42;;;;;;;6.15;3.17;;;;;;;5.39;79.33;100936.79;1827042;78;21050;-61
2022/01/02 08:11:10;;;;;;;8.58;3.65;;;;;;;5.43;79.23;100934.99;1827024;78;21035;-61
2022/01/02 08:13:39;;;;;;;7.33;3.70;;;;;;;5.41;79.04;100932.41;1827055;78;21046;-61
2022/01/02 08:16:08;;;;;;;5.70;2.08;;;;;;;5.38;79.04;100944.19;1827001;78;21533;-61
2022/01/02 08:18:37;;;;;;;4.55;2.67;;;;;;;5.33;79.12;100942.08;1827001;78;21070;-61
2022/01/02 08:21:06;;;;;;;4.55;2.00;;;;;;;5.31;79.16;100939.52;1827181;78;21473;-62
2022/01/02 08:23:35;;;;;;;5.85;2.75;;;;;;;5.35;79.21;100939.88;1827165;78;21657;-61
2022/01/02 08:26:04;;;;;;;5.55;2.30;;;;;;;5.39;79.16;100950.70;1856529;76;21516;-61
2022/01/02 08:28:34;;;;;;;5.12;2.00;;;;;;;5.40;79.08;100958.97;1876978;76;21141;-61
2022/01/02 08:31:02;;;;;;;2.87;1.47;;;;;;;5.41;79.08;100951.53;1876989;76;21066;-61
2022/01/02 08:33:31;;;;;;;3.27;2.00;;;;;;;5.41;79.16;100948.92;1876988;76;21425;-61
2022/01/02 08:36:00;;;;;;;4.83;2.62;;;;;;;5.45;79.08;100953.66;1876874;76;21074;-61
2022/01/02 08:38:30;;;;;;;14.03;5.75;;;;;;;5.60;79.19;100939.51;1876901;76;21481;-61
2022/01/02 08:40:58;;;;;;;5.87;2.85;;;;;;;5.70;79.17;100946.75;1877062;76;21039;-61
2022/01/02 08:43:27;;;;;;;7.30;4.05;;;;;;;5.76;79.05;100942.30;1876933;76;21100;-61
2022/01/02 08:45:56;;;;;;;4.58;2.45;;;;;;;5.79;78.96;100943.99;1877134;76;21087;-62
2022/01/02 08:48:24;;;;;;;7.00;2.15;;;;;;;5.78;78.81;100954.90;1876795;76;21141;-61
2022/01/02 08:50:53;;;;;;;4.12;2.00;;;;;;;5.69;78.57;100952.43;1876946;76;21022;-61
2022/01/02 08:53:22;;;;;;;4.55;2.37;;;;;;;5.61;78.55;100953.86;1876974;76;21460;-60
2022/01/02 08:55:51;;;;;;;6.08;2.40;;;;;;;5.49;78.74;100955.79;1876931;76;21481;-61
2022/01/02 08:58:20;;;;;;;5.58;2.35;;;;;;;5.45;78.98;100958.03;1877042;76;21489;-61
2022/01/02 09:00:48;;;;;;;5.30;2.62;;;;;;;5.51;78.91;100961.84;1876810;76;21489;-61
2022/01/02 09:03:17;;;;;;;4.85;2.25;;;;;;;5.46;78.78;100967.57;1876916;76;21411;-60
2022/01/02 09:05:46;;;;;;;5.15;2.77;;;;;;;5.38;78.78;100973.77;1876881;76;21137;-61
2022/01/02 09:08:14;;;;;;;6.62;2.90;;;;;;;5.29;78.84;100968.67;1877116;76;21045;-60
2022/01/02 09:10:43;;;;;;;4.78;2.65;;;;;;;5.21;78.88;100965.31;1877090;76;21547;-60
2022/01/02 09:13:12;;;;;;;3.75;2.27;;;;;;;5.17;78.90;100963.19;1876910;76;21457;-61
2022/01/02 09:15:41;;;;;;;8.23;2.85;;;;;;;5.17;78.92;100964.94;1876934;76;21599;-60
2022/01/02 09:18:10;;;;;;;4.53;1.95;;;;;;;5.17;78.81;100976.69;1876904;76;21078;-61
2022/01/02 09:20:39;;;;;;;3.95;2.50;;;;;;;5.16;78.80;100964.50;1877006;76;21070;-61
2022/01/02 09:23:07;;;;;;;4.25;2.37;;;;;;;5.10;78.55;100970.67;1877010;76;21038;-61
2022/01/02 09:25:36;;;;;;;4.45;2.52;;;;;;;5.09;78.59;100973.29;1876842;76;21092;-60
2022/01/02 09:28:04;;;;;;;6.50;3.10;;;;;;;5.05;78.60;100974.22;1876785;76;21195;-61
2022/01/02 09:30:34;;;;;;;5.47;2.85;;;;;;;5.06;78.65;100975.96;1876957;76;21074;-61
2022/01/02 09:33:08;;;;;;;6.78;3.10;;;;;;;5.03;78.63;100984.25;1876943;76;21477;-60
2022/01/02 09:35:33;;;;;;;6.08;2.47;;;;;;;5.00;78.53;100965.16;1876381;76;21059;-60
2022/01/02 09:38:02;;;;;;;4.47;2.05;;;;;;;4.94;78.52;100967.41;1876865;76;21058;-60
2022/01/02 09:40:32;;;;;;;8.88;3.37;;;;;;;4.90;78.42;100975.27;1876793;76;21513;-60
2022/01/02 09:43:02;;;;;;;6.00;3.45;;;;;;;4.89;78.58;100979.63;1877002;76;21035;-60
2022/01/02 09:45:33;;;;;;;7.90;3.22;;;;;;;4.91;78.65;100977.02;1876966;76;21092;-60
2022/01/02 09:48:05;;;;;;;4.90;2.35;;;;;;;4.94;78.59;100986.09;1877037;76;21042;-61
2022/01/02 09:50:35;;;;;;;3.98;1.80;;;;;;;4.94;78.44;100977.84;1877012;76;21543;-61
2022/01/02 09:53:04;;;;;;;7.37;3.30;;;;;;;4.95;78.36;100989.99;1876751;76;21039;-60
2022/01/02 09:55:33;;;;;;;6.00;2.90;;;;;;;4.91;78.00;100984.84;1876863;76;21640;-60
2022/01/02 09:58:09;;;;;;;5.30;2.72;;;;;;;4.89;78.30;100987.47;1877079;76;21489;-60
2022/01/02 10:00:32;;;;;;;7.50;2.67;;;;;;;4.90;78.28;100983.95;1876046;76;21046;-60
2022/01/02 10:03:04;;;;;;;6.05;3.05;;;;;;;4.86;78.27;100987.48;1876899;76;21489;-60
2022/01/02 10:05:51;;;;;;;4.95;2.75;;;;;;;4.87;78.42;100993.14;1876877;76;21058;-60
2022/01/02 10:08:25;;;;;;;4.85;3.00;;;;;;;4.88;78.42;100991.39;1865850;76;21133;-60
2022/01/02 10:11:12;;;;;;;3.15;2.02;;;;;;;4.88;78.37;100996.16;1877074;76;21035;-60
2022/01/02 10:13:47;;;;;;;5.62;2.00;;;;;;;4.96;78.42;100999.56;1876689;76;21521;-60
2022/01/02 10:16:34;;;;;;;3.72;1.92;;;;;;;5.09;78.36;101002.00;1876860;76;21486;-60
2022/01/02 10:19:21;;;;;;;4.55;1.98;;;;;;;5.19;78.24;100998.41;1876944;76;21046;-60
2022/01/02 10:21:58;;;;;;;2.10;1.37;;;;;;;5.32;78.16;101004.34;1876855;76;21070;-60
2022/01/02 10:24:29;;;;;;;2.15;1.35;;;;;;;5.50;77.96;101004.55;1876757;76;21125;-60
2022/01/02 10:27:17;;;;;;;2.77;1.30;;;;;;;5.57;77.69;101004.84;1876828;76;21074;-61
2022/01/02 10:29:51;;;;;;;2.35;1.07;;;;;;;5.58;76.88;101006.14;1876917;76;21038;-60
2022/01/02 10:32:31;;;;;;;1.65;1.07;;;;;;;5.59;77.22;101020.94;1876863;76;21010;-61
2022/01/02 10:35:23;;;;;;;1.95;1.17;;;;;;;5.67;77.12;101024.75;1874544;76;21042;-61
2022/01/02 10:37:54;;;;;;;2.25;0.90;;;;;;;5.70;77.24;101026.02;1876875;76;21023;-60
2022/01/02 10:40:40;;;;;;;2.22;1.35;;;;;;;5.74;77.12;101026.84;1876948;76;21030;-60
2022/01/02 10:43:11;;;;;;;2.90;0.80;;;;;;;5.77;76.94;101026.36;1876873;76;21118;-60
2022/01/02 10:45:43;;;;;;;1.35;0.90;;;;;;;5.79;76.91;101034.14;1876998;76;21035;-60
2022/01/02 10:48:14;;;;;;;3.00;1.37;;;;;;;5.72;76.93;101037.77;1876966;76;21022;-60
2022/01/02 10:51:08;;;;;;;1.30;1.02;;;;;;;5.66;76.85;101038.68;1877020;76;21130;-60
2022/01/02 10:53:40;;;;;;;3.90;0.90;;;;;;;5.54;76.82;101040.17;1876989;76;21544;-61
2022/01/02 10:56:09;;;;;;;3.92;1.20;;;;;;;5.37;76.83;101046.48;1874882;76;21524;-61
2022/01/02 10:58:38;;;;;;;1.25;1.00;;;;;;;5.27;77.13;101044.85;1876968;76;21167;-61
2022/01/02 11:01:08;;;;;;;4.10;1.30;;;;;;;5.29;77.36;101035.25;1877066;76;21184;-61
2022/01/02 11:03:37;;;;;;;2.33;0.72;;;;;;;5.28;77.29;101042.67;1877085;76;21384;-60
2022/01/02 11:06:13;;;;;;;5.00;1.47;;;;;;;5.19;77.09;101049.31;1876911;76;21759;-60
2022/01/02 11:08:48;;;;;;;2.83;1.10;;;;;;;5.14;77.42;101061.55;1877102;76;21059;-60
2022/01/02 11:11:21;;;;;;;4.30;1.75;;;;;;;5.11;77.51;101055.94;1877095;76;21121;-60
2022/01/02 11:13:50;;;;;;;2.60;1.42;;;;;;;5.08;77.55;101062.94;1877120;76;21473;-60
2022/01/02 11:16:20;;;;;;;4.00;0.82;;;;;;;5.05;77.58;101055.13;1876878;76;21046;-59
2022/01/02 11:18:49;;;;;;;3.20;1.62;;;;;;;4.97;77.69;101070.43;1876944;76;21128;-60
2022/01/02 11:21:20;;;;;;;2.00;0.95;;;;;;;4.95;77.72;101073.50;1876970;76;21529;-59
2022/01/02 11:23:57;;;;;;;2.22;1.17;;;;;;;4.86;77.71;101083.17;1877001;76;21125;-59
2022/01/02 11:26:48;;;;;;;2.62;1.25;;;;;;;4.79;77.95;101086.27;1877097;76;21034;-60
2022/01/02 11:29:17;;;;;;;5.45;1.35;;;;;;;4.73;78.00;101092.86;1876952;76;21581;-60
2022/01/02 11:31:48;;;;;;;1.05;0.88;;;;;;;4.69;78.04;101092.02;1877085;76;21038;-59
2022/01/02 11:34:36;;;;;;;4.25;1.15;;;;;;;4.73;78.15;101104.59;1910967;75;21119;-60
2022/01/02 11:37:20;;;;;;;3.45;0.95;;;;;;;4.74;78.07;101111.53;1911019;75;21066;-60
2022/01/02 11:40:01;;;;;;;2.65;1.50;;;;;;;4.73;78.17;101105.91;1911184;75;21062;-60
2022/01/02 11:42:44;;;;;;;0.95;0.60;;;;;;;4.69;78.12;101112.89;1911060;75;21038;-59
2022/01/02 11:45:29;;;;;;;6.08;1.15;;;;;;;4.70;78.07;101121.57;1911180;75;21104;-60
2022/01/02 11:47:59;;;;;;;2.47;0.93;;;;;;;4.68;78.00;101129.85;1911063;75;21108;-60
2022/01/02 11:50:40;;;;;;;1.95;0.90;;;;;;;4.60;78.07;101139.05;1911148;75;21022;-59
2022/01/02 11:53:16;;;;;;;1.98;1.17;;;;;;;4.58;78.10;101146.03;1911070;75;21058;-59
2022/01/02 11:55:46;;;;;;;1.77;1.02;;;;;;;4.48;78.24;101146.95;1911077;75;21034;-60